createdAt,value
2023-03-29T00:01:01.758Z,8.39
2023-03-29T00:03:29.176Z,8.38
2023-03-29T00:06:00.195Z,8.27
2023-03-29T00:08:28.742Z,8.25
2023-03-29T00:10:56.398Z,7.91
2023-03-29T00:13:23.447Z,7.79
2023-03-29T00:15:50.308Z,7.74
2023-03-29T00:18:17.117Z,7.72
2023-03-29T00:20:44.064Z,7.65
2023-03-29T00:23:10.956Z,7.68
2023-03-29T00:25:44.759Z,7.73
2023-03-29T00:28:11.802Z,7.76
2023-03-29T00:30:38.566Z,7.74
2023-03-29T00:33:07.210Z,7.80
2023-03-29T00:35:34.355Z,7.84
2023-03-29T00:38:01.182Z,7.94
2023-03-29T00:40:28.319Z,7.89
2023-03-29T00:42:56.631Z,7.98
2023-03-29T00:45:25.267Z,8.05
2023-03-29T00:47:58.075Z,7.93
2023-03-29T00:50:30.965Z,7.88
2023-03-29T00:53:07.293Z,7.85
2023-03-29T00:55:39.879Z,7.82
2023-03-29T00:58:10.897Z,7.79
2023-03-29T01:00:45.650Z,7.76
2023-03-29T01:03:16.674Z,7.61
2023-03-29T01:05:48.384Z,7.54
2023-03-29T01:08:22.647Z,7.47
2023-03-29T01:10:56.965Z,7.38
2023-03-29T01:13:37.376Z,7.39
2023-03-29T01:16:10.406Z,7.35
2023-03-29T01:18:38.138Z,7.38
2023-03-29T01:21:21.039Z,7.34
2023-03-29T01:24:17.685Z,7.26
2023-03-29T01:27:02.909Z,7.23
2023-03-29T01:29:37.771Z,7.25
2023-03-29T01:32:11.161Z,7.22
2023-03-29T01:34:47.343Z,7.21
2023-03-29T01:37:22.187Z,7.15
2023-03-29T01:39:49.003Z,7.18
2023-03-29T01:42:42.167Z,7.16
2023-03-29T01:45:24.522Z,7.13
2023-03-29T01:47:59.634Z,7.20
2023-03-29T01:50:42.435Z,7.29
2023-03-29T01:53:16.938Z,7.33
2023-03-29T01:55:53.425Z,7.30
2023-03-29T01:58:23.349Z,7.22
2023-03-29T02:00:53.518Z,7.19
2023-03-29T02:03:26.475Z,7.21
2023-03-29T02:05:57.786Z,7.16
2023-03-29T02:08:29.952Z,7.22
2023-03-29T02:10:58.032Z,7.20
2023-03-29T02:13:24.863Z,7.19
2023-03-29T02:15:53.124Z,7.17
2023-03-29T02:18:20.768Z,7.19
2023-03-29T02:20:52.111Z,7.24
2023-03-29T02:23:26.728Z,7.20
2023-03-29T02:25:55.072Z,7.22
2023-03-29T02:28:24.523Z,7.18
2023-03-29T02:31:01.612Z,7.13
2023-03-29T02:33:43.395Z,7.20
2023-03-29T02:36:16.949Z,7.24
2023-03-29T02:38:44.569Z,7.23
2023-03-29T02:41:12.369Z,7.10
2023-03-29T02:43:42.686Z,7.02
2023-03-29T02:46:12.474Z,7.06
2023-03-29T02:48:41.042Z,7.06
2023-03-29T02:51:19.880Z,7.17
2023-03-29T02:53:56.424Z,7.11
2023-03-29T02:56:23.388Z,7.13
2023-03-29T02:58:50.446Z,7.23
2023-03-29T03:01:19.077Z,7.15
2023-03-29T03:03:46.106Z,7.17
2023-03-29T03:06:13.621Z,7.08
2023-03-29T03:08:41.643Z,7.09
2023-03-29T03:11:09.123Z,7.11
2023-03-29T03:13:36.039Z,7.08
2023-03-29T03:16:02.966Z,7.08
2023-03-29T03:18:31.584Z,7.18
2023-03-29T03:21:00.035Z,7.21
2023-03-29T03:23:28.070Z,7.17
2023-03-29T03:25:55.343Z,7.13
2023-03-29T03:28:23.108Z,7.12
2023-03-29T03:30:50.733Z,7.11
2023-03-29T03:33:17.645Z,7.11
2023-03-29T03:36:07.687Z,7.09
2023-03-29T03:38:37.290Z,7.07
2023-03-29T03:41:06.739Z,7.10
2023-03-29T03:43:34.896Z,7.15
2023-03-29T03:46:02.140Z,7.16
2023-03-29T03:48:30.426Z,7.19
2023-03-29T03:51:11.876Z,7.16
2023-03-29T03:53:40.912Z,7.20
2023-03-29T03:56:14.666Z,7.26
2023-03-29T03:59:00.789Z,7.34
2023-03-29T04:01:30.026Z,7.35
2023-03-29T04:04:07.517Z,7.43
2023-03-29T04:06:36.001Z,7.31
2023-03-29T04:09:33.005Z,7.32
2023-03-29T04:12:19.840Z,7.32
2023-03-29T04:14:46.954Z,7.34
2023-03-29T04:17:18.912Z,7.39
2023-03-29T04:19:56.342Z,7.43
2023-03-29T04:22:25.218Z,7.37
2023-03-29T04:24:53.232Z,7.40
2023-03-29T04:27:28.821Z,7.43
2023-03-29T04:29:59.887Z,7.45
2023-03-29T04:32:57.715Z,7.60
2023-03-29T04:35:25.695Z,7.66
2023-03-29T04:37:53.868Z,7.72
2023-03-29T04:40:22.604Z,7.62
2023-03-29T04:43:28.382Z,7.57
2023-03-29T04:46:03.857Z,7.62
2023-03-29T04:48:49.721Z,7.58
2023-03-29T04:51:25.638Z,7.48
2023-03-29T04:53:56.440Z,7.52
2023-03-29T04:56:23.878Z,7.52
2023-03-29T04:59:29.835Z,7.59
2023-03-29T05:01:57.212Z,7.62
2023-03-29T05:04:24.378Z,7.55
2023-03-29T05:07:03.710Z,7.57
2023-03-29T05:09:35.010Z,7.60
2023-03-29T05:12:05.552Z,7.73
2023-03-29T05:14:45.712Z,7.78
2023-03-29T05:17:12.586Z,7.75
2023-03-29T05:19:39.565Z,7.82
2023-03-29T05:22:07.763Z,7.88
2023-03-29T05:24:37.380Z,8.00
2023-03-29T05:27:11.096Z,8.15
2023-03-29T05:29:38.907Z,8.27
2023-03-29T05:32:20.518Z,8.39
2023-03-29T05:34:47.809Z,8.45
2023-03-29T05:37:15.474Z,8.38
2023-03-29T05:39:51.170Z,8.12
2023-03-29T05:42:21.211Z,8.00
2023-03-29T05:44:54.713Z,8.16
2023-03-29T05:47:22.126Z,8.18
2023-03-29T05:49:49.054Z,8.32
2023-03-29T05:52:20.732Z,8.43
2023-03-29T05:54:47.700Z,8.54
2023-03-29T05:57:16.999Z,8.43
2023-03-29T05:59:44.890Z,8.31
2023-03-29T06:02:12.496Z,8.06
2023-03-29T06:04:45.210Z,8.03
2023-03-29T06:07:24.873Z,8.16
2023-03-29T06:10:12.481Z,8.12
2023-03-29T06:12:44.841Z,8.17
2023-03-29T06:15:13.291Z,8.31
2023-03-29T06:17:49.600Z,8.48
2023-03-29T06:20:17.427Z,8.58
2023-03-29T06:22:49.277Z,8.52
2023-03-29T06:25:17.463Z,8.52
2023-03-29T06:27:47.924Z,8.47
2023-03-29T06:30:17.577Z,8.50
2023-03-29T06:32:51.092Z,8.58
2023-03-29T06:35:28.420Z,8.71
2023-03-29T06:38:04.274Z,8.83
2023-03-29T06:40:51.537Z,8.97
2023-03-29T06:43:22.043Z,9.07
2023-03-29T06:46:06.325Z,9.18
2023-03-29T06:48:44.524Z,9.30
2023-03-29T06:51:11.627Z,9.38
2023-03-29T06:53:39.765Z,9.38
2023-03-29T06:56:07.647Z,9.45
2023-03-29T06:58:37.955Z,9.30
2023-03-29T07:01:17.216Z,9.17
2023-03-29T07:03:56.091Z,9.05
2023-03-29T07:06:30.029Z,9.08
2023-03-29T07:08:57.467Z,9.15
2023-03-29T07:11:43.500Z,9.34
2023-03-29T07:14:24.973Z,9.28
2023-03-29T07:16:53.652Z,9.37
2023-03-29T07:19:29.107Z,9.54
2023-03-29T07:21:56.620Z,9.52
2023-03-29T07:24:34.499Z,9.60
2023-03-29T07:27:04.513Z,9.56
2023-03-29T07:29:34.427Z,9.66
2023-03-29T07:32:01.330Z,9.78
2023-03-29T07:34:43.452Z,9.93
2023-03-29T07:37:20.318Z,9.80
2023-03-29T07:39:47.593Z,9.70
2023-03-29T07:42:35.881Z,9.72
2023-03-29T07:45:05.296Z,9.56
2023-03-29T07:47:38.349Z,9.65
2023-03-29T07:50:08.067Z,9.60
2023-03-29T07:52:38.287Z,9.69
2023-03-29T07:55:07.607Z,9.66
2023-03-29T07:57:57.774Z,9.64
2023-03-29T08:00:28.152Z,9.76
2023-03-29T08:03:17.866Z,9.84
2023-03-29T08:05:44.908Z,9.71
2023-03-29T08:08:14.956Z,9.80
2023-03-29T08:10:57.544Z,9.87
2023-03-29T08:13:41.184Z,9.85
2023-03-29T08:16:23.136Z,10.03
2023-03-29T08:18:59.428Z,10.03
2023-03-29T08:21:39.447Z,10.12
2023-03-29T08:24:07.964Z,10.23
2023-03-29T08:26:43.716Z,10.30
2023-03-29T08:29:10.888Z,10.45
2023-03-29T08:31:39.737Z,10.46
2023-03-29T08:34:06.912Z,10.52
2023-03-29T08:37:01.218Z,10.75
2023-03-29T08:39:42.301Z,10.72
2023-03-29T08:43:19.857Z,10.43
2023-03-29T08:46:27.501Z,10.42
2023-03-29T08:49:09.236Z,10.45
2023-03-29T08:51:44.224Z,10.33
2023-03-29T08:54:18.342Z,10.33
2023-03-29T08:57:15.911Z,10.37
2023-03-29T08:59:52.393Z,10.55
2023-03-29T09:02:26.545Z,10.70
2023-03-29T09:05:15.165Z,10.75
2023-03-29T09:07:48.748Z,10.75
2023-03-29T09:10:20.697Z,10.79
2023-03-29T09:13:14.772Z,10.94
2023-03-29T09:15:58.772Z,11.05
2023-03-29T09:18:48.852Z,11.04
2023-03-29T09:21:33.707Z,11.23
2023-03-29T09:24:32.605Z,11.22
2023-03-29T09:27:12.502Z,11.51
2023-03-29T09:30:00.775Z,11.71
2023-03-29T09:32:52.944Z,11.77
2023-03-29T09:35:30.729Z,12.01
2023-03-29T09:38:11.977Z,12.20
2023-03-29T09:40:47.437Z,11.79
2023-03-29T09:43:30.104Z,11.87
2023-03-29T09:46:04.381Z,11.88
2023-03-29T09:48:40.096Z,11.92
2023-03-29T09:51:10.304Z,12.38
2023-03-29T09:53:41.098Z,12.38
2023-03-29T09:56:29.562Z,12.46
2023-03-29T09:59:13.068Z,12.35
2023-03-29T10:01:43.520Z,12.68
2023-03-29T10:04:12.158Z,13.01
2023-03-29T10:06:48.214Z,12.66
2023-03-29T10:09:20.853Z,12.95
2023-03-29T10:11:54.691Z,13.19
2023-03-29T10:14:35.487Z,13.03
2023-03-29T10:17:06.283Z,12.98
2023-03-29T10:19:35.819Z,13.67
2023-03-29T10:22:07.358Z,14.10
2023-03-29T10:24:36.084Z,14.15
2023-03-29T10:27:10.336Z,13.54
2023-03-29T10:29:41.503Z,13.48
2023-03-29T10:32:28.170Z,13.57
2023-03-29T10:35:02.905Z,13.90
2023-03-29T10:37:31.195Z,13.88
2023-03-29T10:40:00.300Z,14.33
2023-03-29T10:42:28.671Z,13.89
2023-03-29T10:44:58.305Z,13.94
2023-03-29T10:47:30.967Z,14.61
2023-03-29T10:49:58.395Z,14.66
2023-03-29T10:52:26.238Z,14.91
2023-03-29T10:54:56.476Z,14.36
2023-03-29T10:57:40.110Z,13.53
2023-03-29T11:00:20.097Z,13.32
2023-03-29T11:03:09.073Z,13.59
2023-03-29T11:05:48.708Z,13.64
2023-03-29T11:08:37.124Z,13.82
2023-03-29T11:11:23.339Z,14.01
2023-03-29T11:14:04.783Z,14.43
2023-03-29T11:16:50.948Z,15.03
2023-03-29T11:19:48.928Z,16.07
2023-03-29T11:22:27.966Z,17.36
2023-03-29T11:25:13.570Z,16.44
2023-03-29T11:27:54.124Z,16.91
2023-03-29T11:30:33.473Z,16.27
2023-03-29T11:33:31.208Z,17.34
2023-03-29T11:36:09.236Z,16.89
2023-03-29T11:38:46.907Z,15.79
2023-03-29T11:41:18.709Z,16.13
2023-03-29T11:43:54.228Z,17.60
2023-03-29T11:46:32.112Z,16.51
2023-03-29T11:49:08.812Z,17.63
2023-03-29T11:51:43.861Z,16.16
2023-03-29T11:54:21.249Z,16.07
2023-03-29T11:56:59.348Z,17.22
2023-03-29T11:59:36.416Z,16.89
2023-03-29T12:02:21.155Z,17.18
2023-03-29T12:04:53.754Z,17.83
2023-03-29T12:07:32.539Z,17.14
2023-03-29T12:10:09.190Z,17.19
2023-03-29T12:12:46.548Z,17.68
2023-03-29T12:15:20.592Z,18.44
2023-03-29T12:18:02.953Z,18.92
2023-03-29T12:20:37.494Z,19.79
2023-03-29T12:23:07.605Z,18.91
2023-03-29T12:25:53.438Z,17.54
2023-03-29T12:28:50.635Z,16.75
2023-03-29T12:31:30.366Z,16.47
2023-03-29T12:34:28.353Z,16.64
2023-03-29T12:37:16.807Z,17.27
2023-03-29T12:40:25.348Z,17.01
2023-03-29T12:43:22.984Z,16.90
2023-03-29T12:46:18.709Z,16.11
2023-03-29T12:48:51.003Z,15.82
2023-03-29T12:51:29.592Z,15.95
2023-03-29T12:54:08.356Z,16.28
2023-03-29T12:56:53.236Z,16.74
2023-03-29T12:59:34.515Z,17.16
2023-03-29T13:02:23.750Z,17.40
2023-03-29T13:04:56.714Z,17.78
2023-03-29T13:07:43.806Z,18.03
2023-03-29T13:10:36.599Z,17.37
2023-03-29T13:13:17.437Z,17.48
2023-03-29T13:15:45.716Z,17.76
2023-03-29T13:18:38.143Z,17.69
2023-03-29T13:21:20.667Z,17.12
2023-03-29T13:24:02.796Z,16.81
2023-03-29T13:26:46.971Z,16.77
2023-03-29T13:29:46.742Z,16.20
2023-03-29T13:32:46.680Z,16.50
2023-03-29T13:35:29.888Z,16.66
2023-03-29T13:38:14.303Z,17.00
2023-03-29T13:40:59.153Z,17.25
2023-03-29T13:43:37.585Z,17.32
2023-03-29T13:46:24.178Z,17.40
2023-03-29T13:49:00.541Z,17.34
2023-03-29T13:51:38.590Z,17.37
2023-03-29T13:54:26.133Z,17.30
2023-03-29T13:57:04.871Z,17.12
2023-03-29T13:59:42.776Z,17.11
2023-03-29T14:02:25.180Z,17.07
2023-03-29T14:04:53.603Z,17.06
2023-03-29T14:07:23.697Z,17.01
2023-03-29T14:09:50.869Z,16.94
2023-03-29T14:12:19.433Z,16.88
2023-03-29T14:14:58.421Z,16.87
2023-03-29T14:17:27.598Z,16.81
2023-03-29T14:19:59.102Z,16.90
2023-03-29T14:22:34.476Z,16.90
2023-03-29T14:25:07.228Z,16.90
2023-03-29T14:27:36.452Z,16.84
2023-03-29T14:30:27.173Z,16.73
2023-03-29T14:32:55.106Z,16.67
2023-03-29T14:35:31.781Z,16.68
2023-03-29T14:38:00.391Z,16.66
2023-03-29T14:40:27.350Z,16.45
2023-03-29T14:42:55.790Z,16.54
2023-03-29T14:45:23.343Z,16.56
2023-03-29T14:47:51.716Z,16.59
2023-03-29T14:50:30.149Z,16.64
2023-03-29T14:52:59.713Z,16.60
2023-03-29T14:55:27.313Z,16.66
2023-03-29T14:57:55.770Z,16.79
2023-03-29T15:00:28.544Z,16.79
2023-03-29T15:02:58.709Z,16.77
2023-03-29T15:05:36.606Z,16.83
2023-03-29T15:08:06.739Z,16.83
2023-03-29T15:10:37.384Z,16.89
2023-03-29T15:13:08.789Z,16.83
2023-03-29T15:15:39.224Z,16.83
2023-03-29T15:18:14.293Z,16.93
2023-03-29T15:20:42.577Z,16.97
2023-03-29T15:23:23.521Z,16.80
2023-03-29T15:25:56.045Z,16.75
2023-03-29T15:28:30.744Z,16.81
2023-03-29T15:31:07.879Z,16.87
2023-03-29T15:33:38.558Z,16.94
2023-03-29T15:36:09.098Z,16.79
2023-03-29T15:41:09.519Z,16.60
2023-03-29T15:43:37.921Z,16.14
2023-03-29T15:46:06.667Z,15.96
2023-03-29T15:48:35.002Z,16.15
2023-03-29T15:51:05.451Z,16.14
2023-03-29T15:53:36.150Z,15.98
2023-03-29T15:56:07.969Z,16.11
2023-03-29T15:58:37.540Z,16.23
2023-03-29T16:01:17.415Z,16.24
2023-03-29T16:03:46.268Z,16.17
2023-03-29T16:06:15.816Z,16.26
2023-03-29T16:08:44.838Z,16.36
2023-03-29T16:11:13.862Z,16.44
2023-03-29T16:13:42.224Z,16.52
2023-03-29T16:16:11.350Z,16.47
2023-03-29T16:18:38.338Z,16.26
2023-03-29T16:21:06.498Z,16.24
2023-03-29T16:23:34.230Z,16.34
2023-03-29T16:26:01.383Z,16.18
2023-03-29T16:28:28.415Z,16.22
2023-03-29T16:30:56.597Z,16.12
2023-03-29T16:33:24.696Z,16.12
2023-03-29T16:35:52.112Z,15.99
2023-03-29T16:38:20.066Z,15.94
2023-03-29T16:40:46.915Z,16.10
2023-03-29T16:43:15.905Z,16.19
2023-03-29T16:45:44.159Z,15.93
2023-03-29T16:48:15.553Z,15.86
2023-03-29T16:50:42.471Z,15.69
2023-03-29T16:53:09.492Z,15.77
2023-03-29T16:55:36.394Z,15.87
2023-03-29T16:58:03.195Z,15.82
2023-03-29T17:00:30.814Z,15.67
2023-03-29T17:02:57.759Z,15.47
2023-03-29T17:05:26.045Z,15.41
2023-03-29T17:07:53.144Z,15.39
2023-03-29T17:10:20.021Z,15.35
2023-03-29T17:12:46.905Z,15.25
2023-03-29T17:15:14.111Z,15.19
2023-03-29T17:17:41.547Z,15.28
2023-03-29T17:20:11.140Z,15.23
2023-03-29T17:22:40.209Z,15.23
2023-03-29T17:25:08.930Z,15.29
2023-03-29T17:27:36.868Z,15.36
2023-03-29T17:30:06.596Z,15.29
2023-03-29T17:32:33.904Z,15.13
2023-03-29T17:35:01.285Z,15.07
2023-03-29T17:37:29.220Z,15.03
2023-03-29T17:39:58.178Z,14.92
2023-03-29T17:42:25.004Z,14.84
2023-03-29T17:44:51.798Z,14.80
2023-03-29T17:47:20.741Z,14.71
2023-03-29T17:49:47.566Z,14.74
2023-03-29T17:52:14.331Z,14.68
2023-03-29T17:54:41.209Z,14.67
2023-03-29T17:57:11.024Z,14.67
2023-03-29T17:59:38.779Z,14.65
2023-03-29T18:02:05.751Z,14.62
2023-03-29T18:04:33.347Z,14.60
2023-03-29T18:07:00.781Z,14.60
2023-03-29T18:09:34.188Z,14.62
2023-03-29T18:12:02.476Z,14.61
2023-03-29T18:14:31.283Z,14.63
2023-03-29T18:16:58.272Z,14.65
2023-03-29T18:19:25.678Z,14.66
2023-03-29T18:21:52.651Z,14.62
2023-03-29T18:24:19.798Z,14.60
2023-03-29T18:26:46.975Z,14.64
2023-03-29T18:29:13.855Z,14.60
2023-03-29T18:31:44.102Z,14.64
2023-03-29T18:34:11.183Z,14.65
2023-03-29T18:36:38.228Z,14.62
2023-03-29T18:39:06.026Z,14.60
2023-03-29T18:41:34.640Z,14.57
2023-03-29T18:44:01.577Z,14.50
2023-03-29T18:46:29.308Z,14.49
2023-03-29T18:48:59.485Z,14.45
2023-03-29T18:51:27.399Z,14.42
2023-03-29T18:53:55.420Z,14.43
2023-03-29T18:56:22.481Z,14.50
2023-03-29T18:58:49.424Z,14.55
2023-03-29T19:01:16.442Z,14.59
2023-03-29T19:03:43.666Z,14.52
2023-03-29T19:06:12.801Z,14.56
2023-03-29T19:08:39.843Z,14.57
2023-03-29T19:11:10.609Z,14.58
2023-03-29T19:13:37.865Z,14.55
2023-03-29T19:16:05.784Z,14.54
2023-03-29T19:18:33.567Z,14.57
2023-03-29T19:21:00.555Z,14.59
2023-03-29T19:23:29.121Z,14.59
2023-03-29T19:25:59.402Z,14.57
2023-03-29T19:28:28.197Z,14.37
2023-03-29T19:30:58.148Z,14.34
2023-03-29T19:33:25.202Z,14.39
2023-03-29T19:35:52.792Z,14.38
2023-03-29T19:38:20.895Z,14.33
2023-03-29T19:40:51.600Z,14.35
2023-03-29T19:43:19.052Z,14.27
2023-03-29T19:45:48.843Z,14.29
2023-03-29T19:48:22.335Z,14.32
2023-03-29T19:50:50.003Z,14.25
2023-03-29T19:53:17.148Z,14.27
2023-03-29T19:55:44.557Z,14.28
2023-03-29T19:58:13.249Z,14.28
2023-03-29T20:00:40.156Z,14.22
2023-03-29T20:03:07.725Z,14.16
2023-03-29T20:05:35.347Z,14.18
2023-03-29T20:08:02.735Z,14.18
2023-03-29T20:10:29.851Z,14.13
2023-03-29T20:12:56.680Z,14.12
2023-03-29T20:15:25.508Z,14.18
2023-03-29T20:17:53.080Z,14.21
2023-03-29T20:20:20.721Z,14.16
2023-03-29T20:22:48.005Z,14.16
2023-03-29T20:25:15.185Z,14.21
2023-03-29T20:27:42.297Z,14.23
2023-03-29T20:30:11.044Z,14.24
2023-03-29T20:32:39.702Z,14.24
2023-03-29T20:35:08.706Z,14.21
2023-03-29T20:37:35.631Z,14.21
2023-03-29T20:40:02.929Z,14.21
2023-03-29T20:42:29.730Z,14.18
2023-03-29T20:44:56.790Z,14.09
2023-03-29T20:47:23.743Z,14.09
2023-03-29T20:49:51.994Z,14.10
2023-03-29T20:52:18.836Z,14.04
2023-03-29T20:54:47.828Z,14.03
2023-03-29T20:57:18.475Z,14.12
2023-03-29T20:59:46.852Z,14.15
2023-03-29T21:02:17.059Z,14.25
2023-03-29T21:04:44.105Z,14.44
2023-03-29T21:07:12.320Z,14.51
2023-03-29T21:09:39.413Z,14.49
2023-03-29T21:12:06.736Z,14.48
2023-03-29T21:14:33.559Z,14.49
2023-03-29T21:17:00.578Z,14.46
2023-03-29T21:19:27.968Z,14.47
2023-03-29T21:21:55.411Z,14.42
2023-03-29T21:24:23.722Z,14.40
2023-03-29T21:26:50.636Z,14.34
2023-03-29T21:29:17.389Z,14.33
2023-03-29T21:31:44.196Z,14.27
2023-03-29T21:34:11.138Z,14.31
2023-03-29T21:36:38.232Z,14.33
2023-03-29T21:39:05.199Z,14.35
2023-03-29T21:41:33.863Z,14.22
2023-03-29T21:44:00.609Z,14.23
2023-03-29T21:46:27.536Z,14.24
2023-03-29T21:48:54.386Z,14.32
2023-03-29T21:51:21.227Z,14.34
2023-03-29T21:53:48.188Z,14.40
2023-03-29T21:56:15.180Z,14.64
2023-03-29T21:58:43.391Z,14.73
2023-03-29T22:01:10.768Z,14.71
2023-03-29T22:03:38.027Z,14.73
2023-03-29T22:06:07.627Z,14.74
2023-03-29T22:08:34.594Z,14.81
2023-03-29T22:11:08.752Z,14.89
2023-03-29T22:13:35.769Z,14.94
2023-03-29T22:16:05.583Z,15.06
2023-03-29T22:18:35.844Z,15.12
2023-03-29T22:21:02.994Z,15.18
2023-03-29T22:23:29.880Z,15.13
2023-03-29T22:25:56.858Z,15.11
2023-03-29T22:28:23.599Z,15.09
2023-03-29T22:30:50.380Z,15.07
2023-03-29T22:33:18.615Z,15.10
2023-03-29T22:35:45.573Z,15.08
2023-03-29T22:38:12.402Z,15.05
2023-03-29T22:40:39.914Z,15.08
2023-03-29T22:43:06.747Z,15.13
2023-03-29T22:45:33.551Z,15.22
2023-03-29T22:48:00.442Z,15.38
2023-03-29T22:50:28.638Z,15.44
2023-03-29T22:52:55.417Z,15.46
2023-03-29T22:55:22.278Z,15.39
2023-03-29T22:57:49.138Z,15.43
2023-03-29T23:00:16.776Z,15.49
2023-03-29T23:02:43.618Z,15.43
2023-03-29T23:05:10.480Z,15.33
2023-03-29T23:07:38.883Z,15.31
2023-03-29T23:10:07.911Z,15.29
2023-03-29T23:12:34.891Z,15.21
2023-03-29T23:15:02.770Z,15.17
2023-03-29T23:17:29.746Z,15.16
2023-03-29T23:19:56.628Z,15.16
2023-03-29T23:22:23.553Z,15.12
2023-03-29T23:24:51.703Z,15.08
2023-03-29T23:27:18.967Z,15.08
2023-03-29T23:29:45.735Z,15.09
2023-03-29T23:32:13.693Z,15.09
2023-03-29T23:34:40.561Z,15.08
2023-03-29T23:37:07.624Z,15.06
2023-03-29T23:39:34.421Z,15.08
2023-03-29T23:42:02.638Z,15.26
2023-03-29T23:44:29.519Z,15.25
2023-03-29T23:46:56.328Z,15.20
2023-03-29T23:49:23.268Z,15.20
2023-03-29T23:51:50.116Z,15.15
2023-03-29T23:54:16.952Z,15.06
2023-03-29T23:56:43.760Z,14.79
2023-03-29T23:59:11.868Z,14.66
